Airfield :
LOGIN :

Register | Disclaimer

   EN    FR    IT 

 










Legend :    VFR   Marginal VFR   IFR   Intensive IFR   Very Intensive IFR
Visi :
Ceiling :
>= 8 km
>= 3000ft
5 to 8 km
1000 to 3000 ft
1500m to 5 km
500 to 1000 ft
800 to 1500m
200 to 500 ft
< 800m
< 200 ft
Symbols :   Thunderstorms  Fog  Heavy snow  Heavy precipitations  Wind > 20 kt
SIGMETs :     Misc.  Thunderstorms  Icing  Turbulence  Mountain Waves  Volcanic Ashes







- Airport Elevation : 32 ft
- IATA code : LKZ


EGUL - RAF Lakenheath

CURRENT METAR :
  • 191756Z AUTO 18011KT 9999 FEW017 SCT070 BKN090 16/16 A2955 RMK AO2 DZB04E13 SLP010 P0000 60000 T01620162 10174 20161 55001

EXPIRED METARs :
  • 191716Z AUTO 17011KT 9999 SCT014 17/17 A2954 RMK AO2 DZB04E13 SLP006
  • 191704Z AUTO 17010KT 9999 -DZ OVC014 17/17 A2954 RMK AO2 DZB04 OVC V BKN SLP006
  • 191625Z AUTO 16006KT 9999 BKN017 BKN024 17/17 A2955 RMK AO2 CIG 017V024 SLP010
  • 191556Z AUTO 16010KT 9999 SCT032 17/17 A2955 RMK AO2 SLP010 T01730173
  • 191526Z AUTO 16010KT 9999 FEW019 SCT026 17/17 A2955 RMK AO2 SLP010
  • 191511Z AUTO 16006G18KT 9999 SCT021 BKN026 17/17 A2955 RMK AO2 CIG 021V026 CIG 021 RWY06 SLP010

TAF AMD TAF EGUL
Valid from the 19 at 17:00 until the 20 at 18:00 UTC


191741Z 1917/2018 15012KT 9000 -SHRA BKN020 621008 QNH2949INS
TEMPO 1917/1920 BKN014
BECMG 2004/2005 18015G25KT 9000 -SHRA BKN010 620809 621701 510004 QNH2949INS
BECMG 2016/2017 23012G18KT 9999 NSW BKN030 QNH2972INS TX18/2012Z TN11/2008Z
No reported NOTAMs for that airfield.
1 SIGMET reported for the London FIR (EGTT) :
 
Severe turbulence
EGTT SIGMET 02 VALID 191720/192020 EGRR
EGTT LONDON FIR SEV TURB FCST WI N5210 W00549 - N4946 W00315 - N4909 W00623 - N5100 W00800 - N5210 W00549 SFC/FL060 MOV E 20KT WKN=



MET'MAP, your aeronautical weather chart ! - Copyright ORBIFLY December 2007 - Disclaimer

ORBIFLY MET'MAP TEAM :

Programming & Development : Alexandra Zaïnal
Concept & Development : Baudouin d'Aumeries
Co-Development & Prog : Marc-Olivier Méhu
Technical & hardware support : Manuel Goepfert

Contact : metmap@orbifly.com




SOURCES & CREDITS :

   NOAA